South Vineland, New Jersey
Current Conditions -  °F | °C
As of 12:54 AM on Thursday 23 Oct 2014 (Local Time) from KMIV Reporting Station
Light Rain Light Rain  
Wind Chill: 51°   Ceiling: 2800
Heat Index: 51°   Visibility: 10mi
Dew Point: 48°   Wind: 14mph
Humidity: 89%   Direction: 320°NW
Pressure: 29.75"   Gusts: 28mph
Location:  39.5016°N, 75.0264°W
Report Text: KMIV 230454Z AUTO 32012G24KT 10SM -RA FEW019 BKN028 OVC046 11/09 A2975 RMK AO2 SLP072 P0000 T01060089 401500106 $
Loading
Personal Weather Stations






























Interactive Weather Map
Tropical Storm Tracking
New forecast layout! Learn more

10-Day Weather Forecast

Advertisements
Track Severe Weather on mobile